Meath Environmental Platform

Observations for Trim Market St

Time AQI Temp °C Hum % Pres Pa CO μg/m³ H₂S μg/m³ NO μg/m³ NO₂ μg/m³ O₃ μg/m³ SO₂ μg/m³ PM1 μg/m³ PM2.5 μg/m³ PM10 μg/m³
Saturday 22 August 2026
03:49 2 13.1 66 57,347 0.31 0 2.25 6.28 58.08 0 2.14 3.24 4.93
03:48 2 13.1 66 57,364 0.32 0 2.37 6.22 57.62 0 1.43 2.75 4.28
03:47 2 13.2 66 57,380 0.31 0 2.43 6.08 57.28 0 2.14 5.71 9.48
03:46 2 13.2 66 57,394 0.31 0 2.83 6.08 57.41 0 1.43 3.74 5.58
03:45 2 13.2 66 57,405 0.33 0 3.41 6.08 57.09 0 1.43 4.24 8.18
03:44 2 13.2 66 57,417 0.33 0 4.4 6.18 56.41 0 1.43 3.25 6.23
03:43 2 13.3 66 57,428 0.34 0 3.53 6.33 57.81 0 1.43 3.74 5.57
03:42 2 13.3 66 57,439 0.33 0 3.8 6.55 56.28 0 1.43 3.26 4.92
03:40 2 13.3 66 57,454 0.36 0 3.29 8.28 52.55 0 1.43 3.75 5.57
03:36 2 13.4 66 57,466 0.35 0 2.33 6.09 57.52 0 2.14 3.74 5.57
03:34 2 13.4 66 57,469 0.36 0 2.3 6.14 56.11 0 2.14 4.24 6.22
03:28 2 13.4 66 57,469 0.36 0 2.58 5.99 55.81 0 1.43 4.23 6.23
03:24 2 13.4 66 57,459 0.37 0 2.32 5.79 57.55 0 0.71 3.24 6.23
03:22 2 13.4 66 57,454 0.37 0 2.74 6.04 55.24 0 2.14 3.73 5.58
03:21 2 13.4 66 57,448 0.36 0 2.9 6.73 54.98 0 1.43 3.73 5.58
03:20 2 13.4 66 57,448 0.36 0 3.01 6.61 55.98 0 2.14 3.73 6.23
03:19 2 13.4 66 57,444 0.38 0 3.27 6.73 55.31 0 2.14 3.72 5.58
03:18 2 13.4 66 57,439 0.36 0 3 6.34 56.67 0 2.14 3.23 6.23
03:17 2 13.4 66 57,441 0.37 0 2.62 6.13 55.04 0 1.43 2.74 4.29
03:16 2 13.4 66 57,438 0.36 0 2.71 5.84 56.4 0 2.14 3.23 5.58